sensor_id;sensor_type;location;lat;lon;timestamp;pressure;altitude;pressure_sealevel;temperature;humidity
30618;BME280;17384;51.214;9.202;2023-01-29T00:00:47;99987.09;;;-5.68;85.27
30618;BME280;17384;51.214;9.202;2023-01-29T00:03:13;99977.38;;;-5.67;85.37
30618;BME280;17384;51.214;9.202;2023-01-29T00:05:39;99984.88;;;-5.60;85.67
30618;BME280;17384;51.214;9.202;2023-01-29T00:08:05;99981.13;;;-5.56;85.55
30618;BME280;17384;51.214;9.202;2023-01-29T00:10:30;99976.44;;;-5.51;85.71
30618;BME280;17384;51.214;9.202;2023-01-29T00:12:56;99967.97;;;-5.41;85.64
30618;BME280;17384;51.214;9.202;2023-01-29T00:15:21;99958.84;;;-5.36;85.59
30618;BME280;17384;51.214;9.202;2023-01-29T00:17:46;99953.91;;;-5.26;85.38
30618;BME280;17384;51.214;9.202;2023-01-29T00:20:12;99957.75;;;-5.32;85.41
30618;BME280;17384;51.214;9.202;2023-01-29T00:22:37;99961.16;;;-5.30;84.99
30618;BME280;17384;51.214;9.202;2023-01-29T00:25:03;99959.09;;;-5.25;85.31
30618;BME280;17384;51.214;9.202;2023-01-29T00:27:29;99945.81;;;-5.23;85.58
30618;BME280;17384;51.214;9.202;2023-01-29T00:29:54;99938.88;;;-5.26;85.53
30618;BME280;17384;51.214;9.202;2023-01-29T00:32:38;99941.44;;;-5.24;85.67
30618;BME280;17384;51.214;9.202;2023-01-29T00:35:04;99938.63;;;-5.21;85.77
30618;BME280;17384;51.214;9.202;2023-01-29T00:37:30;99938.06;;;-5.12;85.70
30618;BME280;17384;51.214;9.202;2023-01-29T00:39:56;99925.19;;;-5.02;85.63
30618;BME280;17384;51.214;9.202;2023-01-29T00:42:23;99917.81;;;-4.97;85.33
30618;BME280;17384;51.214;9.202;2023-01-29T00:45:27;99924.81;;;-4.96;85.58
30618;BME280;17384;51.214;9.202;2023-01-29T00:47:52;99918.59;;;-4.95;85.22
30618;BME280;17384;51.214;9.202;2023-01-29T00:50:17;99913.75;;;-4.89;85.53
30618;BME280;17384;51.214;9.202;2023-01-29T00:52:43;99932.38;;;-4.90;85.31
30618;BME280;17384;51.214;9.202;2023-01-29T00:55:09;99914.91;;;-4.93;85.40
30618;BME280;17384;51.214;9.202;2023-01-29T00:57:36;99916.13;;;-4.84;85.45
30618;BME280;17384;51.214;9.202;2023-01-29T01:00:04;99909.81;;;-4.82;85.94
30618;BME280;17384;51.214;9.202;2023-01-29T01:02:30;99911.25;;;-4.76;85.88
30618;BME280;17384;51.214;9.202;2023-01-29T01:05:15;99918.34;;;-4.77;85.55
30618;BME280;17384;51.214;9.202;2023-01-29T01:07:48;99907.84;;;-4.64;85.33
30618;BME280;17384;51.214;9.202;2023-01-29T01:10:23;99909.66;;;-4.64;85.19
30618;BME280;17384;51.214;9.202;2023-01-29T01:12:55;99911.25;;;-4.62;84.92
30618;BME280;17384;51.214;9.202;2023-01-29T01:15:23;99901.44;;;-4.60;85.24
30618;BME280;17384;51.214;9.202;2023-01-29T01:17:56;99901.16;;;-4.55;84.84
30618;BME280;17384;51.214;9.202;2023-01-29T01:20:24;99920.63;;;-4.56;84.97
30618;BME280;17384;51.214;9.202;2023-01-29T01:22:49;99911.47;;;-4.51;85.15
30618;BME280;17384;51.214;9.202;2023-01-29T01:25:15;99926.03;;;-4.44;85.47
30618;BME280;17384;51.214;9.202;2023-01-29T01:27:41;99919.72;;;-4.41;85.09
30618;BME280;17384;51.214;9.202;2023-01-29T01:30:12;99915.81;;;-4.35;84.84
30618;BME280;17384;51.214;9.202;2023-01-29T01:32:38;99924.44;;;-4.32;84.88
30618;BME280;17384;51.214;9.202;2023-01-29T01:35:03;99918.00;;;-4.28;84.80
30618;BME280;17384;51.214;9.202;2023-01-29T01:37:29;99927.09;;;-4.18;84.69
30618;BME280;17384;51.214;9.202;2023-01-29T01:39:54;99923.31;;;-4.14;84.33
30618;BME280;17384;51.214;9.202;2023-01-29T01:42:29;99929.84;;;-4.19;84.31
30618;BME280;17384;51.214;9.202;2023-01-29T01:45:03;99927.94;;;-4.17;84.43
30618;BME280;17384;51.214;9.202;2023-01-29T01:47:43;99933.25;;;-4.17;84.10
30618;BME280;17384;51.214;9.202;2023-01-29T01:50:18;99927.16;;;-4.05;83.75
30618;BME280;17384;51.214;9.202;2023-01-29T01:52:49;99928.41;;;-4.11;83.94
30618;BME280;17384;51.214;9.202;2023-01-29T01:55:20;99931.63;;;-4.20;83.92
30618;BME280;17384;51.214;9.202;2023-01-29T01:57:52;99934.94;;;-4.16;83.88
30618;BME280;17384;51.214;9.202;2023-01-29T02:00:20;99925.09;;;-4.14;84.01
30618;BME280;17384;51.214;9.202;2023-01-29T02:02:47;99927.66;;;-4.13;84.22
30618;BME280;17384;51.214;9.202;2023-01-29T02:05:33;99932.97;;;-4.13;84.52
30618;BME280;17384;51.214;9.202;2023-01-29T02:08:25;99921.19;;;-4.09;84.09
30618;BME280;17384;51.214;9.202;2023-01-29T02:11:11;99915.47;;;-4.15;84.18
30618;BME280;17384;51.214;9.202;2023-01-29T02:13:37;99905.53;;;-4.12;84.44
30618;BME280;17384;51.214;9.202;2023-01-29T02:16:02;99895.22;;;-4.16;83.99
30618;BME280;17384;51.214;9.202;2023-01-29T02:18:28;99880.91;;;-4.28;84.42
30618;BME280;17384;51.214;9.202;2023-01-29T02:21:02;99885.63;;;-4.33;84.91
30618;BME280;17384;51.214;9.202;2023-01-29T02:31:28;99885.44;;;-4.30;85.11
30618;BME280;17384;51.214;9.202;2023-01-29T02:34:13;99887.63;;;-4.22;84.97
30618;BME280;17384;51.214;9.202;2023-01-29T02:37:09;99882.91;;;-4.17;84.74
30618;BME280;17384;51.214;9.202;2023-01-29T02:42:14;99884.03;;;-4.21;84.87
30618;BME280;17384;51.214;9.202;2023-01-29T02:45:10;99877.94;;;-4.09;85.07
30618;BME280;17384;51.214;9.202;2023-01-29T02:50:14;99880.03;;;-4.00;84.19
30618;BME280;17384;51.214;9.202;2023-01-29T02:52:58;99874.63;;;-3.98;83.86
30618;BME280;17384;51.214;9.202;2023-01-29T02:55:33;99874.44;;;-3.95;84.06
30618;BME280;17384;51.214;9.202;2023-01-29T02:58:13;99875.16;;;-3.79;82.82
30618;BME280;17384;51.214;9.202;2023-01-29T03:00:44;99871.41;;;-3.89;82.98
30618;BME280;17384;51.214;9.202;2023-01-29T03:03:19;99878.41;;;-3.88;83.23
30618;BME280;17384;51.214;9.202;2023-01-29T03:08:29;99878.81;;;-3.94;83.62
30618;BME280;17384;51.214;9.202;2023-01-29T03:11:04;99887.69;;;-3.95;83.43
30618;BME280;17384;51.214;9.202;2023-01-29T03:13:41;99893.47;;;-4.03;83.84
30618;BME280;17384;51.214;9.202;2023-01-29T03:19:12;99928.00;;;-4.04;83.50
30618;BME280;17384;51.214;9.202;2023-01-29T03:21:43;99911.84;;;-4.00;83.54
30618;BME280;17384;51.214;9.202;2023-01-29T03:25:02;99906.81;;;-3.90;83.39
30618;BME280;17384;51.214;9.202;2023-01-29T03:28:00;99902.59;;;-3.80;82.69
30618;BME280;17384;51.214;9.202;2023-01-29T03:30:51;99901.00;;;-3.83;82.85
30618;BME280;17384;51.214;9.202;2023-01-29T03:33:49;99900.38;;;-3.86;82.74
30618;BME280;17384;51.214;9.202;2023-01-29T03:36:27;99897.81;;;-3.88;83.18
30618;BME280;17384;51.214;9.202;2023-01-29T03:39:03;99895.66;;;-3.95;83.02
30618;BME280;17384;51.214;9.202;2023-01-29T03:41:34;99896.69;;;-3.98;82.89
30618;BME280;17384;51.214;9.202;2023-01-29T03:46:43;99913.75;;;-4.16;83.19
30618;BME280;17384;51.214;9.202;2023-01-29T03:49:45;99917.91;;;-4.12;83.22
30618;BME280;17384;51.214;9.202;2023-01-29T04:00:27;99900.88;;;-4.36;83.23
30618;BME280;17384;51.214;9.202;2023-01-29T04:05:31;99899.75;;;-4.47;82.98
30618;BME280;17384;51.214;9.202;2023-01-29T04:08:05;99907.47;;;-4.58;83.34
30618;BME280;17384;51.214;9.202;2023-01-29T04:10:33;99910.91;;;-4.56;83.12
30618;BME280;17384;51.214;9.202;2023-01-29T04:13:05;99903.91;;;-4.57;83.28
30618;BME280;17384;51.214;9.202;2023-01-29T04:15:36;99897.06;;;-4.75;83.06
30618;BME280;17384;51.214;9.202;2023-01-29T04:18:04;99899.06;;;-4.79;83.34
30618;BME280;17384;51.214;9.202;2023-01-29T04:20:29;99880.53;;;-4.79;83.74
30618;BME280;17384;51.214;9.202;2023-01-29T04:22:55;99883.34;;;-4.82;83.08
30618;BME280;17384;51.214;9.202;2023-01-29T04:25:33;99876.81;;;-4.90;83.18
30618;BME280;17384;51.214;9.202;2023-01-29T04:28:06;99879.00;;;-4.97;83.73
30618;BME280;17384;51.214;9.202;2023-01-29T04:42:14;99877.91;;;-5.08;83.41
30618;BME280;17384;51.214;9.202;2023-01-29T04:45:16;99857.16;;;-5.30;83.22
30618;BME280;17384;51.214;9.202;2023-01-29T04:47:50;99856.13;;;-5.28;83.17
30618;BME280;17384;51.214;9.202;2023-01-29T04:51:03;99860.50;;;-5.27;83.45
30618;BME280;17384;51.214;9.202;2023-01-29T04:56:13;99872.34;;;-5.34;83.41
30618;BME280;17384;51.214;9.202;2023-01-29T04:59:10;99847.03;;;-5.38;83.77
30618;BME280;17384;51.214;9.202;2023-01-29T05:01:37;99850.53;;;-5.37;83.63
30618;BME280;17384;51.214;9.202;2023-01-29T05:04:12;99821.97;;;-5.47;83.18
30618;BME280;17384;51.214;9.202;2023-01-29T05:06:39;99834.91;;;-5.56;83.17
30618;BME280;17384;51.214;9.202;2023-01-29T05:09:08;99839.16;;;-5.69;83.58
30618;BME280;17384;51.214;9.202;2023-01-29T05:11:34;99828.94;;;-5.60;83.64
30618;BME280;17384;51.214;9.202;2023-01-29T05:14:02;99829.38;;;-5.67;83.27
30618;BME280;17384;51.214;9.202;2023-01-29T05:16:34;99833.41;;;-5.46;83.10
30618;BME280;17384;51.214;9.202;2023-01-29T05:19:08;99829.13;;;-5.33;83.02
30618;BME280;17384;51.214;9.202;2023-01-29T05:21:34;99819.25;;;-5.45;83.10
30618;BME280;17384;51.214;9.202;2023-01-29T05:24:11;99822.28;;;-5.51;83.63
30618;BME280;17384;51.214;9.202;2023-01-29T05:26:39;99824.75;;;-5.48;84.60
30618;BME280;17384;51.214;9.202;2023-01-29T05:29:23;99818.88;;;-5.53;84.53
30618;BME280;17384;51.214;9.202;2023-01-29T05:31:48;99806.41;;;-5.51;84.80
30618;BME280;17384;51.214;9.202;2023-01-29T05:34:14;99794.50;;;-5.44;85.26
30618;BME280;17384;51.214;9.202;2023-01-29T05:36:39;99799.69;;;-5.57;84.80
30618;BME280;17384;51.214;9.202;2023-01-29T05:39:05;99804.63;;;-5.51;85.97
30618;BME280;17384;51.214;9.202;2023-01-29T05:41:30;99797.38;;;-5.33;85.42
30618;BME280;17384;51.214;9.202;2023-01-29T05:43:56;99782.28;;;-5.31;84.91
30618;BME280;17384;51.214;9.202;2023-01-29T05:46:21;99772.72;;;-5.33;84.75
30618;BME280;17384;51.214;9.202;2023-01-29T05:48:46;99769.06;;;-5.31;84.45
30618;BME280;17384;51.214;9.202;2023-01-29T05:51:12;99779.44;;;-5.28;84.88
30618;BME280;17384;51.214;9.202;2023-01-29T05:53:37;99768.78;;;-5.26;85.07
30618;BME280;17384;51.214;9.202;2023-01-29T05:56:04;99787.28;;;-5.26;84.92
30618;BME280;17384;51.214;9.202;2023-01-29T05:58:30;99790.53;;;-5.21;85.33
30618;BME280;17384;51.214;9.202;2023-01-29T06:00:56;99797.22;;;-5.16;85.42
30618;BME280;17384;51.214;9.202;2023-01-29T06:03:22;99801.38;;;-5.12;85.66
30618;BME280;17384;51.214;9.202;2023-01-29T06:05:47;99825.69;;;-5.05;85.85
30618;BME280;17384;51.214;9.202;2023-01-29T06:08:12;99829.75;;;-4.99;85.90
30618;BME280;17384;51.214;9.202;2023-01-29T06:10:38;99848.47;;;-4.88;85.88
30618;BME280;17384;51.214;9.202;2023-01-29T06:13:03;99834.88;;;-4.82;85.71
30618;BME280;17384;51.214;9.202;2023-01-29T06:15:29;99838.75;;;-4.73;85.82
30618;BME280;17384;51.214;9.202;2023-01-29T06:17:55;99862.13;;;-4.66;85.18
30618;BME280;17384;51.214;9.202;2023-01-29T06:20:23;99853.78;;;-4.60;85.16
30618;BME280;17384;51.214;9.202;2023-01-29T06:22:48;99857.66;;;-4.51;84.83
30618;BME280;17384;51.214;9.202;2023-01-29T06:25:14;99848.28;;;-4.28;83.70
30618;BME280;17384;51.214;9.202;2023-01-29T06:27:39;99850.75;;;-4.25;83.26
30618;BME280;17384;51.214;9.202;2023-01-29T06:30:06;99856.22;;;-4.28;83.54
30618;BME280;17384;51.214;9.202;2023-01-29T06:32:31;99858.78;;;-4.27;83.34
30618;BME280;17384;51.214;9.202;2023-01-29T06:34:57;99857.94;;;-4.27;83.62
30618;BME280;17384;51.214;9.202;2023-01-29T06:37:22;99865.78;;;-4.26;83.02
30618;BME280;17384;51.214;9.202;2023-01-29T06:39:48;99859.63;;;-4.26;83.41
30618;BME280;17384;51.214;9.202;2023-01-29T06:42:13;99856.69;;;-4.36;83.46
30618;BME280;17384;51.214;9.202;2023-01-29T06:44:39;99850.38;;;-4.48;83.64
30618;BME280;17384;51.214;9.202;2023-01-29T06:47:04;99866.66;;;-4.54;84.23
30618;BME280;17384;51.214;9.202;2023-01-29T06:49:30;99871.84;;;-4.52;84.70
30618;BME280;17384;51.214;9.202;2023-01-29T06:51:55;99861.34;;;-4.54;84.99
30618;BME280;17384;51.214;9.202;2023-01-29T06:54:21;99876.50;;;-4.41;85.23
30618;BME280;17384;51.214;9.202;2023-01-29T06:56:46;99875.22;;;-4.36;84.98
30618;BME280;17384;51.214;9.202;2023-01-29T06:59:12;99882.03;;;-4.32;85.18
30618;BME280;17384;51.214;9.202;2023-01-29T07:01:38;99869.56;;;-4.30;85.05
30618;BME280;17384;51.214;9.202;2023-01-29T07:04:05;99880.44;;;-4.20;85.43
30618;BME280;17384;51.214;9.202;2023-01-29T07:06:30;99875.63;;;-4.14;84.78
30618;BME280;17384;51.214;9.202;2023-01-29T07:08:56;99856.56;;;-4.06;84.40
30618;BME280;17384;51.214;9.202;2023-01-29T07:11:22;99879.13;;;-4.13;84.20
30618;BME280;17384;51.214;9.202;2023-01-29T07:13:47;99897.09;;;-4.18;84.32
30618;BME280;17384;51.214;9.202;2023-01-29T07:16:12;99903.91;;;-4.14;84.92
30618;BME280;17384;51.214;9.202;2023-01-29T07:18:38;99914.13;;;-4.22;84.83
30618;BME280;17384;51.214;9.202;2023-01-29T07:21:05;99898.03;;;-4.19;85.21
30618;BME280;17384;51.214;9.202;2023-01-29T07:23:32;99875.72;;;-4.15;84.57
30618;BME280;17384;51.214;9.202;2023-01-29T07:26:00;99851.81;;;-4.01;83.94
30618;BME280;17384;51.214;9.202;2023-01-29T07:28:27;99850.88;;;-4.00;83.27
30618;BME280;17384;51.214;9.202;2023-01-29T07:30:58;99866.41;;;-4.08;83.38
30618;BME280;17384;51.214;9.202;2023-01-29T07:33:24;99862.84;;;-4.21;83.98
30618;BME280;17384;51.214;9.202;2023-01-29T07:35:49;99854.81;;;-4.20;83.97
30618;BME280;17384;51.214;9.202;2023-01-29T07:38:15;99860.56;;;-4.13;83.68
30618;BME280;17384;51.214;9.202;2023-01-29T07:40:40;99866.06;;;-4.16;83.46
30618;BME280;17384;51.214;9.202;2023-01-29T07:43:07;99871.38;;;-4.16;83.87
30618;BME280;17384;51.214;9.202;2023-01-29T07:45:35;99854.47;;;-4.01;83.53
30618;BME280;17384;51.214;9.202;2023-01-29T07:48:01;99859.97;;;-3.90;83.27
30618;BME280;17384;51.214;9.202;2023-01-29T07:50:30;99844.81;;;-3.88;83.02
30618;BME280;17384;51.214;9.202;2023-01-29T07:52:56;99843.41;;;-3.93;83.00
30618;BME280;17384;51.214;9.202;2023-01-29T07:55:22;99855.41;;;-3.88;82.79
30618;BME280;17384;51.214;9.202;2023-01-29T07:57:54;99860.94;;;-3.78;82.50
30618;BME280;17384;51.214;9.202;2023-01-29T08:00:20;99842.16;;;-3.61;82.06
30618;BME280;17384;51.214;9.202;2023-01-29T08:02:46;99836.75;;;-3.59;81.27
30618;BME280;17384;51.214;9.202;2023-01-29T08:05:11;99844.50;;;-3.56;80.59
30618;BME280;17384;51.214;9.202;2023-01-29T08:07:37;99847.00;;;-3.67;80.65
30618;BME280;17384;51.214;9.202;2023-01-29T08:10:02;99875.03;;;-3.63;80.84
30618;BME280;17384;51.214;9.202;2023-01-29T08:12:28;99887.25;;;-3.61;80.85
30618;BME280;17384;51.214;9.202;2023-01-29T08:14:54;99882.25;;;-3.53;81.17
30618;BME280;17384;51.214;9.202;2023-01-29T08:17:19;99883.47;;;-3.44;80.57
30618;BME280;17384;51.214;9.202;2023-01-29T08:19:45;99872.16;;;-3.33;80.28
30618;BME280;17384;51.214;9.202;2023-01-29T08:22:10;99874.31;;;-3.53;79.72
30618;BME280;17384;51.214;9.202;2023-01-29T08:24:36;99866.50;;;-3.68;80.13
30618;BME280;17384;51.214;9.202;2023-01-29T08:27:01;99860.16;;;-3.66;80.58
30618;BME280;17384;51.214;9.202;2023-01-29T08:29:26;99857.31;;;-3.63;80.59
30618;BME280;17384;51.214;9.202;2023-01-29T08:31:52;99869.47;;;-3.46;80.60
30618;BME280;17384;51.214;9.202;2023-01-29T08:34:17;99873.72;;;-3.44;80.90
30618;BME280;17384;51.214;9.202;2023-01-29T08:36:43;99875.25;;;-3.54;80.65
30618;BME280;17384;51.214;9.202;2023-01-29T08:39:08;99864.16;;;-3.73;80.87
30618;BME280;17384;51.214;9.202;2023-01-29T08:41:34;99859.81;;;-3.47;81.57
30618;BME280;17384;51.214;9.202;2023-01-29T08:44:00;99867.84;;;-3.49;81.27
30618;BME280;17384;51.214;9.202;2023-01-29T08:46:29;99876.09;;;-3.53;80.93
30618;BME280;17384;51.214;9.202;2023-01-29T08:48:54;99863.19;;;-3.45;80.42
30618;BME280;17384;51.214;9.202;2023-01-29T08:51:20;99851.63;;;-3.57;80.74
30618;BME280;17384;51.214;9.202;2023-01-29T08:53:46;99850.13;;;-3.48;81.58
30618;BME280;17384;51.214;9.202;2023-01-29T08:56:12;99836.47;;;-3.42;80.75
30618;BME280;17384;51.214;9.202;2023-01-29T08:58:37;99845.19;;;-3.40;80.27
30618;BME280;17384;51.214;9.202;2023-01-29T09:01:07;99850.00;;;-3.20;79.84
30618;BME280;17384;51.214;9.202;2023-01-29T09:03:33;99851.03;;;-3.35;79.37
30618;BME280;17384;51.214;9.202;2023-01-29T09:05:59;99833.72;;;-3.41;80.02
30618;BME280;17384;51.214;9.202;2023-01-29T09:08:24;99830.28;;;-3.28;80.54
30618;BME280;17384;51.214;9.202;2023-01-29T09:10:50;99820.16;;;-3.36;80.74
30618;BME280;17384;51.214;9.202;2023-01-29T09:13:15;99807.94;;;-3.38;81.58
30618;BME280;17384;51.214;9.202;2023-01-29T09:15:41;99804.94;;;-3.07;82.19
30618;BME280;17384;51.214;9.202;2023-01-29T09:18:06;99802.47;;;-2.59;80.56
30618;BME280;17384;51.214;9.202;2023-01-29T09:20:32;99801.50;;;-2.09;77.71
30618;BME280;17384;51.214;9.202;2023-01-29T09:22:57;99805.44;;;-2.15;77.90
30618;BME280;17384;51.214;9.202;2023-01-29T09:25:23;99796.25;;;-2.34;77.96
30618;BME280;17384;51.214;9.202;2023-01-29T09:27:49;99784.63;;;-2.70;79.25
30618;BME280;17384;51.214;9.202;2023-01-29T09:30:15;99810.13;;;-2.80;80.11
30618;BME280;17384;51.214;9.202;2023-01-29T09:32:41;99795.56;;;-2.87;80.79
30618;BME280;17384;51.214;9.202;2023-01-29T09:35:06;99807.47;;;-2.93;81.29
30618;BME280;17384;51.214;9.202;2023-01-29T09:37:33;99812.78;;;-2.93;81.91
30618;BME280;17384;51.214;9.202;2023-01-29T09:39:58;99824.44;;;-2.70;81.32
30618;BME280;17384;51.214;9.202;2023-01-29T09:45:13;99814.38;;;-2.52;79.68
30618;BME280;17384;51.214;9.202;2023-01-29T09:47:40;99805.22;;;-2.61;79.32
30618;BME280;17384;51.214;9.202;2023-01-29T09:50:19;99798.66;;;-2.55;78.84
30618;BME280;17384;51.214;9.202;2023-01-29T09:52:51;99808.00;;;-2.50;79.30
30618;BME280;17384;51.214;9.202;2023-01-29T09:55:25;99785.53;;;-2.46;79.55
30618;BME280;17384;51.214;9.202;2023-01-29T09:58:02;99787.28;;;-2.70;79.33
30618;BME280;17384;51.214;9.202;2023-01-29T10:00:39;99789.00;;;-2.82;79.84
30618;BME280;17384;51.214;9.202;2023-01-29T10:08:31;99808.75;;;-2.60;79.10
30618;BME280;17384;51.214;9.202;2023-01-29T10:25:05;99807.16;;;-2.14;78.00
30618;BME280;17384;51.214;9.202;2023-01-29T10:27:34;99807.56;;;-2.07;77.66
30618;BME280;17384;51.214;9.202;2023-01-29T10:30:07;99792.28;;;-2.16;77.68
30618;BME280;17384;51.214;9.202;2023-01-29T10:32:42;99769.91;;;-2.01;77.56
30618;BME280;17384;51.214;9.202;2023-01-29T10:35:19;99778.09;;;-1.80;76.76
30618;BME280;17384;51.214;9.202;2023-01-29T10:37:46;99782.91;;;-1.85;76.73
30618;BME280;17384;51.214;9.202;2023-01-29T10:40:19;99794.13;;;-1.69;75.66
30618;BME280;17384;51.214;9.202;2023-01-29T10:42:51;99787.16;;;-1.59;75.56
30618;BME280;17384;51.214;9.202;2023-01-29T10:45:40;99781.81;;;-1.59;75.50
30618;BME280;17384;51.214;9.202;2023-01-29T10:48:38;99766.00;;;-1.84;76.55
30618;BME280;17384;51.214;9.202;2023-01-29T10:58:54;99730.53;;;-1.61;76.85
30618;BME280;17384;51.214;9.202;2023-01-29T11:01:21;99738.03;;;-1.66;77.03
30618;BME280;17384;51.214;9.202;2023-01-29T11:03:55;99725.91;;;-1.35;76.59
30618;BME280;17384;51.214;9.202;2023-01-29T11:06:29;99717.38;;;-1.16;75.40
30618;BME280;17384;51.214;9.202;2023-01-29T11:11:47;99707.09;;;-1.10;75.75
30618;BME280;17384;51.214;9.202;2023-01-29T11:14:27;99698.38;;;-1.12;76.06
30618;BME280;17384;51.214;9.202;2023-01-29T11:16:54;99699.09;;;-1.10;76.24
30618;BME280;17384;51.214;9.202;2023-01-29T11:19:42;99691.47;;;-1.03;75.99
30618;BME280;17384;51.214;9.202;2023-01-29T11:22:17;99694.38;;;-0.95;75.58
30618;BME280;17384;51.214;9.202;2023-01-29T11:24:44;99690.38;;;-0.78;75.55
30618;BME280;17384;51.214;9.202;2023-01-29T11:27:24;99674.50;;;-0.69;75.37
30618;BME280;17384;51.214;9.202;2023-01-29T11:29:54;99686.72;;;-0.55;74.95
30618;BME280;17384;51.214;9.202;2023-01-29T11:37:20;99658.81;;;-0.28;73.83
30618;BME280;17384;51.214;9.202;2023-01-29T11:39:46;99664.69;;;-0.14;73.60
30618;BME280;17384;51.214;9.202;2023-01-29T11:42:19;99652.22;;;0.08;72.77
30618;BME280;17384;51.214;9.202;2023-01-29T11:44:46;99661.94;;;0.29;72.03
30618;BME280;17384;51.214;9.202;2023-01-29T11:47:18;99659.28;;;0.29;72.25
30618;BME280;17384;51.214;9.202;2023-01-29T11:49:49;99654.59;;;0.43;70.32
30618;BME280;17384;51.214;9.202;2023-01-29T11:52:18;99646.34;;;0.25;70.23
30618;BME280;17384;51.214;9.202;2023-01-29T11:54:59;99659.94;;;-0.10;71.38
30618;BME280;17384;51.214;9.202;2023-01-29T11:57:32;99657.78;;;-0.16;72.24
30618;BME280;17384;51.214;9.202;2023-01-29T12:02:46;99649.00;;;-0.28;71.93
30618;BME280;17384;51.214;9.202;2023-01-29T12:05:18;99649.69;;;-0.26;71.87
30618;BME280;17384;51.214;9.202;2023-01-29T12:07:52;99631.56;;;-0.43;72.67
30618;BME280;17384;51.214;9.202;2023-01-29T12:10:37;99628.81;;;-0.53;72.41
30618;BME280;17384;51.214;9.202;2023-01-29T12:13:18;99639.47;;;-0.53;72.64
30618;BME280;17384;51.214;9.202;2023-01-29T12:15:47;99628.78;;;-0.42;72.47
30618;BME280;17384;51.214;9.202;2023-01-29T12:18:35;99624.78;;;-0.36;72.97
30618;BME280;17384;51.214;9.202;2023-01-29T12:21:13;99631.25;;;-0.18;72.17
30618;BME280;17384;51.214;9.202;2023-01-29T12:24:03;99623.59;;;-0.11;72.00
30618;BME280;17384;51.214;9.202;2023-01-29T12:26:41;99626.13;;;-0.10;72.72
30618;BME280;17384;51.214;9.202;2023-01-29T12:29:32;99597.84;;;-0.01;71.55
30618;BME280;17384;51.214;9.202;2023-01-29T12:35:29;99608.69;;;0.07;71.18
30618;BME280;17384;51.214;9.202;2023-01-29T12:38:09;99598.56;;;0.22;71.11
30618;BME280;17384;51.214;9.202;2023-01-29T12:40:47;99595.34;;;0.28;71.45
30618;BME280;17384;51.214;9.202;2023-01-29T12:43:22;99601.22;;;0.43;71.90
30618;BME280;17384;51.214;9.202;2023-01-29T12:45:53;99591.88;;;0.58;70.66
30618;BME280;17384;51.214;9.202;2023-01-29T12:48:38;99581.56;;;0.74;70.35
30618;BME280;17384;51.214;9.202;2023-01-29T12:51:10;99577.00;;;0.95;68.13
30618;BME280;17384;51.214;9.202;2023-01-29T12:56:29;99565.53;;;0.44;69.56
30618;BME280;17384;51.214;9.202;2023-01-29T12:58:59;99557.28;;;0.47;69.70
30618;BME280;17384;51.214;9.202;2023-01-29T13:01:40;99564.19;;;0.49;70.07
30618;BME280;17384;51.214;9.202;2023-01-29T13:04:35;99558.25;;;0.46;69.75
30618;BME280;17384;51.214;9.202;2023-01-29T13:07:26;99545.88;;;0.45;69.41
30618;BME280;17384;51.214;9.202;2023-01-29T13:10:00;99558.28;;;0.55;69.14
30618;BME280;17384;51.214;9.202;2023-01-29T13:12:29;99562.38;;;0.59;69.60
30618;BME280;17384;51.214;9.202;2023-01-29T13:15:02;99543.09;;;0.56;68.67
30618;BME280;17384;51.214;9.202;2023-01-29T13:17:46;99548.75;;;0.53;69.25
30618;BME280;17384;51.214;9.202;2023-01-29T13:20:28;99539.69;;;0.44;70.35
30618;BME280;17384;51.214;9.202;2023-01-29T13:22:58;99528.69;;;0.38;69.71
30618;BME280;17384;51.214;9.202;2023-01-29T13:25:27;99528.78;;;0.57;70.39
30618;BME280;17384;51.214;9.202;2023-01-29T13:27:53;99527.66;;;0.50;68.70
30618;BME280;17384;51.214;9.202;2023-01-29T13:32:53;99516.97;;;0.50;68.30
30618;BME280;17384;51.214;9.202;2023-01-29T13:35:21;99501.47;;;0.44;69.61
30618;BME280;17384;51.214;9.202;2023-01-29T13:37:52;99509.09;;;0.48;68.53
30618;BME280;17384;51.214;9.202;2023-01-29T13:40:29;99497.25;;;0.41;68.34
30618;BME280;17384;51.214;9.202;2023-01-29T13:42:57;99488.41;;;0.41;69.35
30618;BME280;17384;51.214;9.202;2023-01-29T13:45:26;99497.06;;;0.33;70.08
30618;BME280;17384;51.214;9.202;2023-01-29T13:50:53;99508.50;;;0.14;69.63
30618;BME280;17384;51.214;9.202;2023-01-29T13:53:33;99509.13;;;-0.03;69.75
30618;BME280;17384;51.214;9.202;2023-01-29T13:58:58;99514.72;;;-0.06;70.74
30618;BME280;17384;51.214;9.202;2023-01-29T14:04:21;99525.31;;;-0.16;70.76
30618;BME280;17384;51.214;9.202;2023-01-29T14:06:58;99509.22;;;-0.25;70.92
30618;BME280;17384;51.214;9.202;2023-01-29T14:11:56;99507.88;;;-0.20;71.47
30618;BME280;17384;51.214;9.202;2023-01-29T14:17:16;99505.88;;;-0.27;71.01
30618;BME280;17384;51.214;9.202;2023-01-29T14:19:49;99509.09;;;-0.24;72.41
30618;BME280;17384;51.214;9.202;2023-01-29T14:22:19;99501.44;;;-0.17;71.53
30618;BME280;17384;51.214;9.202;2023-01-29T14:24:46;99495.97;;;-0.16;71.41
30618;BME280;17384;51.214;9.202;2023-01-29T14:27:20;99504.22;;;-0.19;72.56
30618;BME280;17384;51.214;9.202;2023-01-29T14:29:47;99499.69;;;-0.28;72.14
30618;BME280;17384;51.214;9.202;2023-01-29T14:34:44;99496.81;;;-0.36;71.76
30618;BME280;17384;51.214;9.202;2023-01-29T14:37:27;99502.75;;;-0.32;72.49
30618;BME280;17384;51.214;9.202;2023-01-29T14:42:38;99499.09;;;-0.31;71.63
30618;BME280;17384;51.214;9.202;2023-01-29T14:45:25;99493.06;;;-0.33;71.88
30618;BME280;17384;51.214;9.202;2023-01-29T14:53:23;99489.81;;;-0.37;72.47
30618;BME280;17384;51.214;9.202;2023-01-29T15:01:32;99497.06;;;-0.18;71.82
30618;BME280;17384;51.214;9.202;2023-01-29T15:04:14;99491.69;;;-0.07;71.95
30618;BME280;17384;51.214;9.202;2023-01-29T15:09:16;99483.41;;;-0.25;71.60
30618;BME280;17384;51.214;9.202;2023-01-29T15:11:48;99496.69;;;-0.35;72.17
30618;BME280;17384;51.214;9.202;2023-01-29T15:14:34;99486.88;;;-0.34;72.79
30618;BME280;17384;51.214;9.202;2023-01-29T15:17:06;99500.72;;;-0.40;72.34
30618;BME280;17384;51.214;9.202;2023-01-29T15:19:43;99491.75;;;-0.39;72.65
30618;BME280;17384;51.214;9.202;2023-01-29T15:22:14;99484.34;;;-0.36;73.17
30618;BME280;17384;51.214;9.202;2023-01-29T15:24:41;99490.81;;;-0.49;72.50
30618;BME280;17384;51.214;9.202;2023-01-29T15:27:27;99496.81;;;-0.57;73.27
30618;BME280;17384;51.214;9.202;2023-01-29T15:29:57;99489.47;;;-0.44;73.09
30618;BME280;17384;51.214;9.202;2023-01-29T15:32:31;99489.09;;;-0.39;72.72